Аэропорт
Угольный (UHMA)

 UHMA / DYR
ЗЦ Хабаровск
Магадан (UHMM)
Магадан (UHMM)
 64.73490, 177.74100  / 194 ft

 UHMA 220530Z 11005MPS CAVOK 04/01 Q1031 R19/29//50 NOSIG RMK TDZ R19/11005G07MPS END R19/11004G06MPS QFE767/1023
 TAF UHMA 220145Z 2203/2303 15005MPS 9999 SCT015 TEMPO 2203/2206 09003G08MPS 5000 BR SCT005 FM220600 09003G08MPS 5000 BR SCT005 TEMPO 2206/2224 02005MPS 0500 FZFG VV002
UHMA_j_0220
показать схемы
Название сценария Тип сценария Flight Simulator 9 Flight Simulator X Prepar3D v2 Prepar3D v3 Prepar3D v4 Prepar3D v5 xPlane
UHMA xPlane бесплатный
uhma-scenery-fs9-1003 бесплатный
uhma-scenery-fsx-1308 бесплатный
UHMA_P3D_v.4.4 бесплатный


2020 © VATRUS division (Privacy Policy)